sensor_id;sensor_type;location;lat;lon;timestamp;P1;durP1;ratioP1;P2;durP2;ratioP2
35518;SDS011;21627;48.216;16.482;2023-02-15T00:00:09;38.58;;;20.58;;
35518;SDS011;21627;48.216;16.482;2023-02-15T00:02:40;41.97;;;21.85;;
35518;SDS011;21627;48.216;16.482;2023-02-15T00:05:08;44.17;;;23.02;;
35518;SDS011;21627;48.216;16.482;2023-02-15T00:07:35;43.30;;;21.48;;
35518;SDS011;21627;48.216;16.482;2023-02-15T00:10:03;36.35;;;20.33;;
35518;SDS011;21627;48.216;16.482;2023-02-15T00:12:31;48.03;;;24.73;;
35518;SDS011;21627;48.216;16.482;2023-02-15T00:14:59;42.60;;;23.23;;
35518;SDS011;21627;48.216;16.482;2023-02-15T00:17:29;47.20;;;24.98;;
35518;SDS011;21627;48.216;16.482;2023-02-15T00:19:56;45.72;;;24.10;;
35518;SDS011;21627;48.216;16.482;2023-02-15T00:22:23;47.13;;;23.98;;
35518;SDS011;21627;48.216;16.482;2023-02-15T00:24:52;42.63;;;21.20;;
35518;SDS011;21627;48.216;16.482;2023-02-15T00:27:22;47.15;;;23.00;;
35518;SDS011;21627;48.216;16.482;2023-02-15T00:29:50;37.00;;;20.27;;
35518;SDS011;21627;48.216;16.482;2023-02-15T00:32:17;41.92;;;21.98;;
35518;SDS011;21627;48.216;16.482;2023-02-15T00:34:44;44.53;;;22.30;;
35518;SDS011;21627;48.216;16.482;2023-02-15T00:37:11;37.58;;;20.58;;
35518;SDS011;21627;48.216;16.482;2023-02-15T00:39:38;43.57;;;23.03;;
35518;SDS011;21627;48.216;16.482;2023-02-15T00:42:05;40.10;;;21.73;;
35518;SDS011;21627;48.216;16.482;2023-02-15T00:44:33;36.93;;;20.60;;
35518;SDS011;21627;48.216;16.482;2023-02-15T00:47:00;37.47;;;20.58;;
35518;SDS011;21627;48.216;16.482;2023-02-15T00:49:27;40.80;;;21.10;;
35518;SDS011;21627;48.216;16.482;2023-02-15T00:51:54;41.30;;;20.87;;
35518;SDS011;21627;48.216;16.482;2023-02-15T00:54:21;42.57;;;21.53;;
35518;SDS011;21627;48.216;16.482;2023-02-15T00:56:49;41.53;;;22.37;;
35518;SDS011;21627;48.216;16.482;2023-02-15T00:59:16;42.37;;;22.10;;
35518;SDS011;21627;48.216;16.482;2023-02-15T01:01:43;40.47;;;22.30;;
35518;SDS011;21627;48.216;16.482;2023-02-15T01:04:10;44.83;;;23.13;;
35518;SDS011;21627;48.216;16.482;2023-02-15T01:06:38;39.90;;;21.13;;
35518;SDS011;21627;48.216;16.482;2023-02-15T01:09:05;42.65;;;21.85;;
35518;SDS011;21627;48.216;16.482;2023-02-15T01:11:32;44.23;;;22.43;;
35518;SDS011;21627;48.216;16.482;2023-02-15T01:13:59;46.13;;;22.00;;
35518;SDS011;21627;48.216;16.482;2023-02-15T01:16:27;42.77;;;21.83;;
35518;SDS011;21627;48.216;16.482;2023-02-15T01:18:55;40.57;;;21.30;;
35518;SDS011;21627;48.216;16.482;2023-02-15T01:21:23;42.43;;;21.83;;
35518;SDS011;21627;48.216;16.482;2023-02-15T01:23:52;43.50;;;21.70;;
35518;SDS011;21627;48.216;16.482;2023-02-15T01:26:22;43.90;;;21.97;;
35518;SDS011;21627;48.216;16.482;2023-02-15T01:28:49;46.20;;;23.23;;
35518;SDS011;21627;48.216;16.482;2023-02-15T01:31:18;42.50;;;22.43;;
35518;SDS011;21627;48.216;16.482;2023-02-15T01:33:51;45.00;;;22.00;;
35518;SDS011;21627;48.216;16.482;2023-02-15T01:36:18;41.50;;;21.27;;
35518;SDS011;21627;48.216;16.482;2023-02-15T01:38:45;45.97;;;22.33;;
35518;SDS011;21627;48.216;16.482;2023-02-15T01:41:13;42.77;;;21.13;;
35518;SDS011;21627;48.216;16.482;2023-02-15T01:43:47;40.10;;;21.10;;
35518;SDS011;21627;48.216;16.482;2023-02-15T01:46:19;41.97;;;21.60;;
35518;SDS011;21627;48.216;16.482;2023-02-15T01:49:16;38.37;;;20.90;;
35518;SDS011;21627;48.216;16.482;2023-02-15T01:51:50;43.50;;;21.37;;
35518;SDS011;21627;48.216;16.482;2023-02-15T01:54:27;42.60;;;22.23;;
35518;SDS011;21627;48.216;16.482;2023-02-15T01:57:03;39.27;;;20.33;;
35518;SDS011;21627;48.216;16.482;2023-02-15T01:59:58;41.50;;;20.87;;
35518;SDS011;21627;48.216;16.482;2023-02-15T02:02:28;42.50;;;21.10;;
35518;SDS011;21627;48.216;16.482;2023-02-15T02:05:00;40.13;;;20.40;;
35518;SDS011;21627;48.216;16.482;2023-02-15T02:07:34;35.07;;;19.87;;
35518;SDS011;21627;48.216;16.482;2023-02-15T02:10:11;40.90;;;20.13;;
35518;SDS011;21627;48.216;16.482;2023-02-15T02:12:41;36.30;;;18.33;;
35518;SDS011;21627;48.216;16.482;2023-02-15T02:15:11;34.80;;;18.63;;
35518;SDS011;21627;48.216;16.482;2023-02-15T02:20:30;33.37;;;18.77;;
35518;SDS011;21627;48.216;16.482;2023-02-15T02:29:13;35.03;;;17.50;;
35518;SDS011;21627;48.216;16.482;2023-02-15T02:34:55;36.50;;;19.57;;
35518;SDS011;21627;48.216;16.482;2023-02-15T02:43:56;36.43;;;18.67;;
35518;SDS011;21627;48.216;16.482;2023-02-15T02:49:59;32.90;;;17.93;;
35518;SDS011;21627;48.216;16.482;2023-02-15T02:52:46;40.97;;;20.47;;
35518;SDS011;21627;48.216;16.482;2023-02-15T02:55:18;38.10;;;20.77;;
35518;SDS011;21627;48.216;16.482;2023-02-15T03:01:12;35.97;;;19.60;;
35518;SDS011;21627;48.216;16.482;2023-02-15T03:03:59;37.50;;;19.33;;
35518;SDS011;21627;48.216;16.482;2023-02-15T03:09:31;38.13;;;19.73;;
35518;SDS011;21627;48.216;16.482;2023-02-15T03:12:13;35.97;;;19.17;;
35518;SDS011;21627;48.216;16.482;2023-02-15T03:14:48;36.00;;;17.98;;
35518;SDS011;21627;48.216;16.482;2023-02-15T03:17:34;35.20;;;19.20;;
35518;SDS011;21627;48.216;16.482;2023-02-15T03:20:09;40.37;;;20.10;;
35518;SDS011;21627;48.216;16.482;2023-02-15T03:22:44;46.53;;;21.20;;
35518;SDS011;21627;48.216;16.482;2023-02-15T03:25:22;39.00;;;19.10;;
35518;SDS011;21627;48.216;16.482;2023-02-15T03:27:58;38.00;;;19.60;;
35518;SDS011;21627;48.216;16.482;2023-02-15T03:30:34;34.63;;;18.98;;
35518;SDS011;21627;48.216;16.482;2023-02-15T03:33:04;38.47;;;19.60;;
35518;SDS011;21627;48.216;16.482;2023-02-15T03:35:39;43.72;;;20.38;;
35518;SDS011;21627;48.216;16.482;2023-02-15T03:38:42;38.70;;;18.63;;
35518;SDS011;21627;48.216;16.482;2023-02-15T03:41:37;39.00;;;18.23;;
35518;SDS011;21627;48.216;16.482;2023-02-15T03:47:30;36.13;;;18.55;;
35518;SDS011;21627;48.216;16.482;2023-02-15T03:50:07;35.60;;;19.50;;
35518;SDS011;21627;48.216;16.482;2023-02-15T03:53:18;42.83;;;20.00;;
35518;SDS011;21627;48.216;16.482;2023-02-15T03:55:50;38.03;;;18.97;;
35518;SDS011;21627;48.216;16.482;2023-02-15T03:58:21;35.53;;;19.20;;
35518;SDS011;21627;48.216;16.482;2023-02-15T04:01:32;36.43;;;18.90;;
35518;SDS011;21627;48.216;16.482;2023-02-15T04:04:39;37.50;;;18.90;;
35518;SDS011;21627;48.216;16.482;2023-02-15T04:07:12;38.57;;;19.97;;
35518;SDS011;21627;48.216;16.482;2023-02-15T04:09:40;36.47;;;18.63;;
35518;SDS011;21627;48.216;16.482;2023-02-15T04:12:26;39.30;;;19.73;;
35518;SDS011;21627;48.216;16.482;2023-02-15T04:14:53;39.10;;;21.50;;
35518;SDS011;21627;48.216;16.482;2023-02-15T04:17:39;35.17;;;18.85;;
35518;SDS011;21627;48.216;16.482;2023-02-15T04:20:06;37.93;;;19.47;;
35518;SDS011;21627;48.216;16.482;2023-02-15T04:22:54;35.87;;;19.23;;
35518;SDS011;21627;48.216;16.482;2023-02-15T04:25:40;36.50;;;19.48;;
35518;SDS011;21627;48.216;16.482;2023-02-15T04:28:07;33.67;;;18.00;;
35518;SDS011;21627;48.216;16.482;2023-02-15T04:30:34;34.30;;;17.80;;
35518;SDS011;21627;48.216;16.482;2023-02-15T04:33:01;38.17;;;18.63;;
35518;SDS011;21627;48.216;16.482;2023-02-15T04:35:29;35.63;;;18.63;;
35518;SDS011;21627;48.216;16.482;2023-02-15T04:38:01;37.00;;;20.00;;
35518;SDS011;21627;48.216;16.482;2023-02-15T04:40:29;39.30;;;19.90;;
35518;SDS011;21627;48.216;16.482;2023-02-15T04:42:56;37.47;;;18.70;;
35518;SDS011;21627;48.216;16.482;2023-02-15T04:45:23;38.97;;;21.27;;
35518;SDS011;21627;48.216;16.482;2023-02-15T04:47:50;41.40;;;20.10;;
35518;SDS011;21627;48.216;16.482;2023-02-15T04:50:17;36.10;;;18.77;;
35518;SDS011;21627;48.216;16.482;2023-02-15T04:52:45;36.97;;;20.37;;
35518;SDS011;21627;48.216;16.482;2023-02-15T04:55:12;36.00;;;19.60;;
35518;SDS011;21627;48.216;16.482;2023-02-15T04:57:44;39.57;;;18.17;;
35518;SDS011;21627;48.216;16.482;2023-02-15T05:00:12;38.57;;;20.37;;
35518;SDS011;21627;48.216;16.482;2023-02-15T05:02:40;33.43;;;18.10;;
35518;SDS011;21627;48.216;16.482;2023-02-15T05:05:07;37.30;;;19.47;;
35518;SDS011;21627;48.216;16.482;2023-02-15T05:07:35;36.10;;;19.53;;
35518;SDS011;21627;48.216;16.482;2023-02-15T05:10:03;32.53;;;18.20;;
35518;SDS011;21627;48.216;16.482;2023-02-15T05:12:30;37.90;;;18.17;;
35518;SDS011;21627;48.216;16.482;2023-02-15T05:15:01;37.20;;;17.47;;
35518;SDS011;21627;48.216;16.482;2023-02-15T05:17:28;49.83;;;20.77;;
35518;SDS011;21627;48.216;16.482;2023-02-15T05:19:55;37.93;;;21.53;;
35518;SDS011;21627;48.216;16.482;2023-02-15T05:22:22;38.50;;;20.23;;
35518;SDS011;21627;48.216;16.482;2023-02-15T05:24:50;39.50;;;19.70;;
35518;SDS011;21627;48.216;16.482;2023-02-15T05:27:36;41.53;;;20.55;;
35518;SDS011;21627;48.216;16.482;2023-02-15T05:30:22;38.10;;;20.30;;
35518;SDS011;21627;48.216;16.482;2023-02-15T05:32:49;44.30;;;20.40;;
35518;SDS011;21627;48.216;16.482;2023-02-15T05:35:20;39.57;;;19.23;;
35518;SDS011;21627;48.216;16.482;2023-02-15T05:37:47;37.07;;;19.57;;
35518;SDS011;21627;48.216;16.482;2023-02-15T05:40:14;35.23;;;19.07;;
35518;SDS011;21627;48.216;16.482;2023-02-15T05:42:42;37.97;;;19.13;;
35518;SDS011;21627;48.216;16.482;2023-02-15T05:45:12;37.27;;;19.10;;
35518;SDS011;21627;48.216;16.482;2023-02-15T05:47:39;40.10;;;21.03;;
35518;SDS011;21627;48.216;16.482;2023-02-15T05:50:07;36.17;;;19.50;;
35518;SDS011;21627;48.216;16.482;2023-02-15T05:52:35;34.40;;;17.67;;
35518;SDS011;21627;48.216;16.482;2023-02-15T05:55:03;43.33;;;18.43;;
35518;SDS011;21627;48.216;16.482;2023-02-15T05:57:31;36.43;;;18.60;;
35518;SDS011;21627;48.216;16.482;2023-02-15T05:59:59;39.33;;;19.73;;
35518;SDS011;21627;48.216;16.482;2023-02-15T06:02:26;39.17;;;19.17;;
35518;SDS011;21627;48.216;16.482;2023-02-15T06:04:53;35.97;;;18.77;;
35518;SDS011;21627;48.216;16.482;2023-02-15T06:07:20;35.73;;;17.73;;
35518;SDS011;21627;48.216;16.482;2023-02-15T06:09:51;35.07;;;18.40;;
35518;SDS011;21627;48.216;16.482;2023-02-15T06:12:22;36.13;;;19.27;;
35518;SDS011;21627;48.216;16.482;2023-02-15T06:14:49;37.20;;;19.87;;
35518;SDS011;21627;48.216;16.482;2023-02-15T06:17:17;35.43;;;18.97;;
35518;SDS011;21627;48.216;16.482;2023-02-15T06:19:44;36.10;;;18.53;;
35518;SDS011;21627;48.216;16.482;2023-02-15T06:22:11;37.63;;;19.70;;
35518;SDS011;21627;48.216;16.482;2023-02-15T06:24:43;33.43;;;17.50;;
35518;SDS011;21627;48.216;16.482;2023-02-15T06:27:10;35.73;;;17.87;;
35518;SDS011;21627;48.216;16.482;2023-02-15T06:29:37;34.17;;;18.27;;
35518;SDS011;21627;48.216;16.482;2023-02-15T06:32:05;36.10;;;18.70;;
35518;SDS011;21627;48.216;16.482;2023-02-15T06:34:32;34.50;;;17.80;;
35518;SDS011;21627;48.216;16.482;2023-02-15T06:36:59;36.40;;;18.23;;
35518;SDS011;21627;48.216;16.482;2023-02-15T06:39:27;38.60;;;19.13;;
35518;SDS011;21627;48.216;16.482;2023-02-15T06:41:54;40.80;;;20.30;;
35518;SDS011;21627;48.216;16.482;2023-02-15T06:44:21;38.80;;;19.03;;
35518;SDS011;21627;48.216;16.482;2023-02-15T06:46:49;40.70;;;19.47;;
35518;SDS011;21627;48.216;16.482;2023-02-15T06:49:16;42.43;;;20.17;;
35518;SDS011;21627;48.216;16.482;2023-02-15T06:51:44;42.00;;;22.33;;
35518;SDS011;21627;48.216;16.482;2023-02-15T06:54:11;41.13;;;20.97;;
35518;SDS011;21627;48.216;16.482;2023-02-15T06:56:38;43.97;;;21.83;;
35518;SDS011;21627;48.216;16.482;2023-02-15T06:59:09;44.17;;;22.00;;
35518;SDS011;21627;48.216;16.482;2023-02-15T07:01:36;45.40;;;23.20;;
35518;SDS011;21627;48.216;16.482;2023-02-15T07:04:04;43.90;;;22.23;;
35518;SDS011;21627;48.216;16.482;2023-02-15T07:06:32;44.80;;;22.97;;
35518;SDS011;21627;48.216;16.482;2023-02-15T07:09:00;47.47;;;23.33;;
35518;SDS011;21627;48.216;16.482;2023-02-15T07:11:27;47.27;;;23.10;;
35518;SDS011;21627;48.216;16.482;2023-02-15T07:14:13;48.80;;;24.80;;
35518;SDS011;21627;48.216;16.482;2023-02-15T07:16:41;42.03;;;23.60;;
35518;SDS011;21627;48.216;16.482;2023-02-15T07:19:11;48.77;;;23.33;;
35518;SDS011;21627;48.216;16.482;2023-02-15T07:21:39;52.83;;;25.63;;
35518;SDS011;21627;48.216;16.482;2023-02-15T07:24:06;53.70;;;24.73;;
35518;SDS011;21627;48.216;16.482;2023-02-15T07:26:34;57.23;;;24.13;;
35518;SDS011;21627;48.216;16.482;2023-02-15T07:29:01;53.90;;;23.50;;
35518;SDS011;21627;48.216;16.482;2023-02-15T07:31:28;48.67;;;24.00;;
35518;SDS011;21627;48.216;16.482;2023-02-15T07:33:55;53.30;;;23.27;;
35518;SDS011;21627;48.216;16.482;2023-02-15T07:36:23;49.40;;;23.23;;
35518;SDS011;21627;48.216;16.482;2023-02-15T07:38:50;49.50;;;24.30;;
35518;SDS011;21627;48.216;16.482;2023-02-15T07:41:17;46.37;;;23.97;;
35518;SDS011;21627;48.216;16.482;2023-02-15T07:43:44;54.00;;;24.67;;
35518;SDS011;21627;48.216;16.482;2023-02-15T07:46:13;51.00;;;25.43;;
35518;SDS011;21627;48.216;16.482;2023-02-15T07:48:46;54.70;;;25.63;;
35518;SDS011;21627;48.216;16.482;2023-02-15T07:51:14;49.78;;;25.30;;
35518;SDS011;21627;48.216;16.482;2023-02-15T07:53:42;50.55;;;24.98;;
35518;SDS011;21627;48.216;16.482;2023-02-15T07:56:10;50.80;;;24.83;;
35518;SDS011;21627;48.216;16.482;2023-02-15T07:58:41;50.03;;;23.87;;
35518;SDS011;21627;48.216;16.482;2023-02-15T08:03:44;46.00;;;24.13;;
35518;SDS011;21627;48.216;16.482;2023-02-15T08:06:11;48.73;;;23.73;;
35518;SDS011;21627;48.216;16.482;2023-02-15T08:08:40;46.90;;;25.10;;
35518;SDS011;21627;48.216;16.482;2023-02-15T08:13:59;43.38;;;22.77;;
35518;SDS011;21627;48.216;16.482;2023-02-15T08:19:12;41.50;;;21.60;;
35518;SDS011;21627;48.216;16.482;2023-02-15T08:21:51;42.43;;;21.67;;
35518;SDS011;21627;48.216;16.482;2023-02-15T08:24:24;44.30;;;23.90;;
35518;SDS011;21627;48.216;16.482;2023-02-15T08:26:57;42.73;;;22.27;;
35518;SDS011;21627;48.216;16.482;2023-02-15T08:29:26;41.43;;;21.53;;
35518;SDS011;21627;48.216;16.482;2023-02-15T08:31:56;38.25;;;20.08;;
35518;SDS011;21627;48.216;16.482;2023-02-15T08:34:29;37.97;;;20.67;;
35518;SDS011;21627;48.216;16.482;2023-02-15T08:36:59;40.57;;;21.73;;
35518;SDS011;21627;48.216;16.482;2023-02-15T08:39:27;40.70;;;21.33;;
35518;SDS011;21627;48.216;16.482;2023-02-15T08:41:55;38.97;;;21.53;;
35518;SDS011;21627;48.216;16.482;2023-02-15T08:44:22;40.97;;;21.50;;
35518;SDS011;21627;48.216;16.482;2023-02-15T08:46:50;39.23;;;20.20;;
35518;SDS011;21627;48.216;16.482;2023-02-15T08:49:20;49.17;;;22.43;;
35518;SDS011;21627;48.216;16.482;2023-02-15T08:51:49;37.80;;;21.00;;
35518;SDS011;21627;48.216;16.482;2023-02-15T08:54:19;43.30;;;21.93;;
35518;SDS011;21627;48.216;16.482;2023-02-15T08:56:48;41.53;;;21.27;;
35518;SDS011;21627;48.216;16.482;2023-02-15T08:59:19;44.33;;;21.93;;
35518;SDS011;21627;48.216;16.482;2023-02-15T09:01:49;38.27;;;22.10;;
35518;SDS011;21627;48.216;16.482;2023-02-15T09:04:18;38.10;;;21.47;;
35518;SDS011;21627;48.216;16.482;2023-02-15T09:06:47;44.50;;;21.67;;
35518;SDS011;21627;48.216;16.482;2023-02-15T09:09:16;46.10;;;22.63;;
35518;SDS011;21627;48.216;16.482;2023-02-15T09:11:46;40.30;;;21.10;;
35518;SDS011;21627;48.216;16.482;2023-02-15T09:14:26;38.80;;;21.43;;
35518;SDS011;21627;48.216;16.482;2023-02-15T09:16:53;38.00;;;20.97;;
35518;SDS011;21627;48.216;16.482;2023-02-15T09:19:22;43.37;;;22.33;;
35518;SDS011;21627;48.216;16.482;2023-02-15T09:21:50;43.07;;;22.97;;
35518;SDS011;21627;48.216;16.482;2023-02-15T09:24:20;40.83;;;21.63;;
35518;SDS011;21627;48.216;16.482;2023-02-15T09:26:48;42.97;;;20.63;;
35518;SDS011;21627;48.216;16.482;2023-02-15T09:29:15;39.03;;;21.07;;
35518;SDS011;21627;48.216;16.482;2023-02-15T09:31:45;41.17;;;21.90;;
35518;SDS011;21627;48.216;16.482;2023-02-15T09:34:17;44.83;;;20.47;;
35518;SDS011;21627;48.216;16.482;2023-02-15T09:36:46;40.90;;;21.87;;
35518;SDS011;21627;48.216;16.482;2023-02-15T09:39:16;45.07;;;22.93;;
35518;SDS011;21627;48.216;16.482;2023-02-15T09:42:15;41.38;;;22.77;;
35518;SDS011;21627;48.216;16.482;2023-02-15T09:51:07;45.23;;;23.93;;
35518;SDS011;21627;48.216;16.482;2023-02-15T09:53:56;49.90;;;23.58;;
35518;SDS011;21627;48.216;16.482;2023-02-15T09:56:58;46.63;;;24.47;;
35518;SDS011;21627;48.216;16.482;2023-02-15T09:59:41;40.03;;;22.00;;
35518;SDS011;21627;48.216;16.482;2023-02-15T10:02:36;41.27;;;23.20;;
35518;SDS011;21627;48.216;16.482;2023-02-15T10:22:05;46.33;;;24.48;;
35518;SDS011;21627;48.216;16.482;2023-02-15T10:27:53;37.78;;;20.63;;
35518;SDS011;21627;48.216;16.482;2023-02-15T10:30:41;41.75;;;22.50;;
35518;SDS011;21627;48.216;16.482;2023-02-15T10:33:40;42.78;;;21.92;;
35518;SDS011;21627;48.216;16.482;2023-02-15T10:42:03;41.00;;;21.75;;
35518;SDS011;21627;48.216;16.482;2023-02-15T11:03:24;49.60;;;22.53;;
35518;SDS011;21627;48.216;16.482;2023-02-15T11:06:34;40.43;;;21.47;;
35518;SDS011;21627;48.216;16.482;2023-02-15T11:09:09;40.40;;;20.25;;
35518;SDS011;21627;48.216;16.482;2023-02-15T11:11:39;44.15;;;21.88;;
35518;SDS011;21627;48.216;16.482;2023-02-15T11:17:12;39.67;;;20.70;;
35518;SDS011;21627;48.216;16.482;2023-02-15T11:19:58;34.63;;;19.38;;
35518;SDS011;21627;48.216;16.482;2023-02-15T11:22:36;38.83;;;20.85;;
35518;SDS011;21627;48.216;16.482;2023-02-15T11:25:14;40.47;;;21.60;;
35518;SDS011;21627;48.216;16.482;2023-02-15T11:28:00;43.00;;;21.20;;
35518;SDS011;21627;48.216;16.482;2023-02-15T11:30:43;45.20;;;21.73;;
35518;SDS011;21627;48.216;16.482;2023-02-15T11:33:25;37.95;;;20.85;;
35518;SDS011;21627;48.216;16.482;2023-02-15T11:36:08;43.35;;;21.25;;
35518;SDS011;21627;48.216;16.482;2023-02-15T11:38:44;41.33;;;21.92;;
35518;SDS011;21627;48.216;16.482;2023-02-15T11:41:18;40.40;;;21.73;;
35518;SDS011;21627;48.216;16.482;2023-02-15T11:47:07;42.83;;;22.40;;
35518;SDS011;21627;48.216;16.482;2023-02-15T11:49:38;42.38;;;21.48;;
35518;SDS011;21627;48.216;16.482;2023-02-15T11:52:10;46.22;;;21.92;;
35518;SDS011;21627;48.216;16.482;2023-02-15T11:54:42;47.97;;;23.73;;
35518;SDS011;21627;48.216;16.482;2023-02-15T11:57:26;42.15;;;22.92;;
35518;SDS011;21627;48.216;16.482;2023-02-15T12:02:52;48.88;;;23.50;;
35518;SDS011;21627;48.216;16.482;2023-02-15T12:05:22;43.13;;;23.42;;
35518;SDS011;21627;48.216;16.482;2023-02-15T12:07:55;51.45;;;24.50;;
35518;SDS011;21627;48.216;16.482;2023-02-15T12:10:36;45.13;;;24.08;;
35518;SDS011;21627;48.216;16.482;2023-02-15T12:13:14;48.33;;;24.55;;
35518;SDS011;21627;48.216;16.482;2023-02-15T12:15:47;51.08;;;24.67;;
35518;SDS011;21627;48.216;16.482;2023-02-15T12:18:27;51.65;;;23.63;;
35518;SDS011;21627;48.216;16.482;2023-02-15T12:21:07;45.30;;;23.90;;
35518;SDS011;21627;48.216;16.482;2023-02-15T12:23:55;43.08;;;23.20;;
35518;SDS011;21627;48.216;16.482;2023-02-15T12:26:31;43.33;;;23.45;;
35518;SDS011;21627;48.216;16.482;2023-02-15T12:29:06;46.70;;;23.67;;
35518;SDS011;21627;48.216;16.482;2023-02-15T12:31:47;46.63;;;22.85;;
35518;SDS011;21627;48.216;16.482;2023-02-15T12:34:20;46.42;;;23.42;;
35518;SDS011;21627;48.216;16.482;2023-02-15T12:36:54;46.75;;;22.85;;
35518;SDS011;21627;48.216;16.482;2023-02-15T12:42:00;51.15;;;25.45;;
35518;SDS011;21627;48.216;16.482;2023-02-15T12:44:34;46.53;;;23.52;;
35518;SDS011;21627;48.216;16.482;2023-02-15T12:49:42;51.53;;;25.55;;
35518;SDS011;21627;48.216;16.482;2023-02-15T12:54:47;47.70;;;24.05;;
35518;SDS011;21627;48.216;16.482;2023-02-15T12:57:23;48.63;;;24.67;;
35518;SDS011;21627;48.216;16.482;2023-02-15T13:02:41;50.80;;;25.45;;
35518;SDS011;21627;48.216;16.482;2023-02-15T13:10:56;48.20;;;24.80;;
35518;SDS011;21627;48.216;16.482;2023-02-15T13:13:45;53.83;;;24.70;;
35518;SDS011;21627;48.216;16.482;2023-02-15T13:19:47;51.13;;;24.50;;
35518;SDS011;21627;48.216;16.482;2023-02-15T13:21:56;55.40;;;25.10;;
35518;SDS011;21627;48.216;16.482;2023-02-15T13:24:39;49.05;;;23.60;;
35518;SDS011;21627;48.216;16.482;2023-02-15T13:27:15;44.95;;;21.63;;
35518;SDS011;21627;48.216;16.482;2023-02-15T13:29:51;44.70;;;21.95;;
35518;SDS011;21627;48.216;16.482;2023-02-15T13:32:36;46.03;;;24.17;;
35518;SDS011;21627;48.216;16.482;2023-02-15T13:35:10;45.53;;;23.58;;
35518;SDS011;21627;48.216;16.482;2023-02-15T13:40:37;43.58;;;24.05;;
35518;SDS011;21627;48.216;16.482;2023-02-15T13:57:54;45.97;;;24.25;;
35518;SDS011;21627;48.216;16.482;2023-02-15T14:01:28;50.72;;;24.63;;
35518;SDS011;21627;48.216;16.482;2023-02-15T14:15:44;45.35;;;23.27;;
35518;SDS011;21627;48.216;16.482;2023-02-15T14:21:31;45.80;;;23.70;;
35518;SDS011;21627;48.216;16.482;2023-02-15T14:29:49;48.77;;;24.53;;
35518;SDS011;21627;48.216;16.482;2023-02-15T14:36:00;47.70;;;23.15;;
35518;SDS011;21627;48.216;16.482;2023-02-15T14:41:29;52.53;;;25.02;;
35518;SDS011;21627;48.216;16.482;2023-02-15T14:44:23;50.38;;;24.52;;
35518;SDS011;21627;48.216;16.482;2023-02-15T14:47:05;53.55;;;26.77;;
35518;SDS011;21627;48.216;16.482;2023-02-15T14:49:52;42.25;;;24.20;;
35518;SDS011;21627;48.216;16.482;2023-02-15T14:52:20;52.05;;;25.58;;
35518;SDS011;21627;48.216;16.482;2023-02-15T15:02:41;44.13;;;25.85;;
35518;SDS011;21627;48.216;16.482;2023-02-15T15:05:21;50.10;;;25.13;;
35518;SDS011;21627;48.216;16.482;2023-02-15T15:07:58;47.63;;;25.02;;
35518;SDS011;21627;48.216;16.482;2023-02-15T15:10:35;51.13;;;24.67;;
35518;SDS011;21627;48.216;16.482;2023-02-15T15:16:23;51.08;;;25.25;;
35518;SDS011;21627;48.216;16.482;2023-02-15T15:22:21;50.20;;;25.38;;
35518;SDS011;21627;48.216;16.482;2023-02-15T15:24:55;52.40;;;25.45;;
35518;SDS011;21627;48.216;16.482;2023-02-15T15:35:27;55.10;;;24.95;;
35518;SDS011;21627;48.216;16.482;2023-02-15T15:45:22;50.83;;;26.00;;
35518;SDS011;21627;48.216;16.482;2023-02-15T15:51:23;49.75;;;24.92;;
35518;SDS011;21627;48.216;16.482;2023-02-15T15:54:00;49.42;;;25.40;;
35518;SDS011;21627;48.216;16.482;2023-02-15T15:56:31;54.83;;;26.25;;
35518;SDS011;21627;48.216;16.482;2023-02-15T15:59:05;50.30;;;26.23;;
35518;SDS011;21627;48.216;16.482;2023-02-15T16:01:42;52.85;;;25.95;;
35518;SDS011;21627;48.216;16.482;2023-02-15T16:04:28;56.83;;;26.38;;
35518;SDS011;21627;48.216;16.482;2023-02-15T16:07:13;51.92;;;25.58;;
35518;SDS011;21627;48.216;16.482;2023-02-15T16:12:25;54.42;;;26.25;;
35518;SDS011;21627;48.216;16.482;2023-02-15T16:15:04;50.72;;;26.17;;
35518;SDS011;21627;48.216;16.482;2023-02-15T16:18:11;55.03;;;25.63;;
35518;SDS011;21627;48.216;16.482;2023-02-15T16:20:51;60.10;;;26.17;;
35518;SDS011;21627;48.216;16.482;2023-02-15T16:29:14;56.05;;;28.05;;
35518;SDS011;21627;48.216;16.482;2023-02-15T16:31:56;55.15;;;26.77;;
35518;SDS011;21627;48.216;16.482;2023-02-15T16:34:29;56.42;;;26.38;;
35518;SDS011;21627;48.216;16.482;2023-02-15T16:37:13;59.03;;;27.23;;
35518;SDS011;21627;48.216;16.482;2023-02-15T16:39:46;52.13;;;24.60;;
35518;SDS011;21627;48.216;16.482;2023-02-15T16:42:18;54.15;;;27.33;;
35518;SDS011;21627;48.216;16.482;2023-02-15T16:44:47;48.40;;;24.03;;
35518;SDS011;21627;48.216;16.482;2023-02-15T16:47:33;46.37;;;24.20;;
35518;SDS011;21627;48.216;16.482;2023-02-15T16:50:10;55.63;;;25.75;;
35518;SDS011;21627;48.216;16.482;2023-02-15T16:53:05;54.20;;;25.58;;
35518;SDS011;21627;48.216;16.482;2023-02-15T16:55:43;52.57;;;26.27;;
35518;SDS011;21627;48.216;16.482;2023-02-15T16:58:27;52.57;;;25.97;;
35518;SDS011;21627;48.216;16.482;2023-02-15T17:01:08;56.22;;;27.13;;
35518;SDS011;21627;48.216;16.482;2023-02-15T17:03:45;58.83;;;25.73;;
35518;SDS011;21627;48.216;16.482;2023-02-15T17:06:24;50.87;;;25.80;;
35518;SDS011;21627;48.216;16.482;2023-02-15T17:09:03;54.33;;;26.50;;
35518;SDS011;21627;48.216;16.482;2023-02-15T17:11:46;55.73;;;26.50;;
35518;SDS011;21627;48.216;16.482;2023-02-15T17:14:32;57.03;;;26.27;;
35518;SDS011;21627;48.216;16.482;2023-02-15T17:17:12;56.38;;;25.13;;
35518;SDS011;21627;48.216;16.482;2023-02-15T17:19:47;50.27;;;24.77;;
35518;SDS011;21627;48.216;16.482;2023-02-15T17:22:24;63.13;;;28.90;;
35518;SDS011;21627;48.216;16.482;2023-02-15T17:27:31;51.97;;;24.80;;
35518;SDS011;21627;48.216;16.482;2023-02-15T17:30:12;60.77;;;26.10;;
35518;SDS011;21627;48.216;16.482;2023-02-15T17:32:53;52.38;;;25.20;;
35518;SDS011;21627;48.216;16.482;2023-02-15T17:35:28;48.73;;;23.57;;
35518;SDS011;21627;48.216;16.482;2023-02-15T17:38:04;50.90;;;25.73;;
35518;SDS011;21627;48.216;16.482;2023-02-15T17:40:48;61.17;;;28.33;;
35518;SDS011;21627;48.216;16.482;2023-02-15T17:43:17;50.30;;;25.90;;
35518;SDS011;21627;48.216;16.482;2023-02-15T17:45:48;57.37;;;27.23;;
35518;SDS011;21627;48.216;16.482;2023-02-15T17:51:01;55.30;;;26.73;;
35518;SDS011;21627;48.216;16.482;2023-02-15T17:53:49;58.17;;;27.23;;
35518;SDS011;21627;48.216;16.482;2023-02-15T17:56:37;56.63;;;28.30;;
35518;SDS011;21627;48.216;16.482;2023-02-15T17:59:07;53.90;;;25.80;;
35518;SDS011;21627;48.216;16.482;2023-02-15T18:01:48;57.77;;;28.07;;
35518;SDS011;21627;48.216;16.482;2023-02-15T18:07:28;54.77;;;27.00;;
35518;SDS011;21627;48.216;16.482;2023-02-15T18:10:17;62.83;;;28.60;;
35518;SDS011;21627;48.216;16.482;2023-02-15T18:13:05;57.43;;;28.57;;
35518;SDS011;21627;48.216;16.482;2023-02-15T18:15:35;65.67;;;27.20;;
35518;SDS011;21627;48.216;16.482;2023-02-15T18:18:07;62.77;;;27.33;;
35518;SDS011;21627;48.216;16.482;2023-02-15T18:20:39;61.83;;;28.70;;